createdAt,value
2017-05-12T00:00:27.134Z,0
2017-05-12T00:01:08.490Z,0
2017-05-12T00:01:49.061Z,0
2017-05-12T00:02:29.610Z,0
2017-05-12T00:03:10.734Z,0
2017-05-12T00:03:54.440Z,0
2017-05-12T00:04:35.855Z,0
2017-05-12T00:05:16.298Z,0
2017-05-12T00:06:01.360Z,0
2017-05-12T00:06:43.542Z,0
2017-05-12T00:07:26.673Z,0
2017-05-12T00:09:40.709Z,0
2017-05-12T00:10:21.881Z,0
2017-05-12T00:14:09.489Z,0
2017-05-12T00:14:53.406Z,0
2017-05-12T00:15:35.587Z,0
2017-05-12T00:16:16.033Z,0
2017-05-12T00:16:58.890Z,0
2017-05-12T00:17:43.907Z,0
2017-05-12T00:18:24.312Z,0
2017-05-12T00:19:13.061Z,0
2017-05-12T00:19:54.410Z,0
2017-05-12T00:26:56.798Z,0
2017-05-12T00:27:39.167Z,0
2017-05-12T00:28:21.126Z,0
2017-05-12T01:04:31.248Z,0
2017-05-12T01:33:55.465Z,0
2017-05-12T01:38:41.421Z,0
2017-05-12T01:39:27.454Z,0
2017-05-12T01:42:21.194Z,0
2017-05-12T01:43:06.138Z,0
2017-05-12T01:43:47.198Z,0
2017-05-12T02:10:52.499Z,0
2017-05-12T02:11:32.918Z,0
2017-05-12T02:12:13.372Z,0
2017-05-12T02:12:54.778Z,0
2017-05-12T02:15:46.306Z,0
2017-05-12T02:27:57.759Z,0
2017-05-12T02:28:41.765Z,0
2017-05-12T02:29:23.851Z,0
2017-05-12T02:33:53.724Z,0
2017-05-12T02:36:14.997Z,0
2017-05-12T02:40:16.754Z,0
2017-05-12T02:42:33.890Z,0
2017-05-12T02:43:22.110Z,0
2017-05-12T02:44:02.574Z,0
2017-05-12T02:44:43.004Z,0
2017-05-12T02:46:59.161Z,0
2017-05-12T02:51:32.090Z,0
2017-05-12T02:52:12.474Z,0
2017-05-12T02:52:53.731Z,0
2017-05-12T02:53:34.778Z,0
2017-05-12T02:54:16.563Z,0
2017-05-12T02:54:57.530Z,0
2017-05-12T02:55:38.558Z,0
2017-05-12T02:56:19.044Z,0
2017-05-12T02:57:03.852Z,0
2017-05-12T02:57:45.877Z,0
2017-05-12T02:58:30.017Z,0
2017-05-12T03:02:39.344Z,0
2017-05-12T03:03:21.529Z,0
2017-05-12T03:05:36.026Z,0
2017-05-12T03:06:16.434Z,0
2017-05-12T03:06:56.941Z,0
2017-05-12T03:07:39.244Z,0
2017-05-12T03:08:20.358Z,0
2017-05-12T03:09:00.766Z,0
2017-05-12T03:09:41.790Z,0
2017-05-12T03:10:26.683Z,0
2017-05-12T03:11:16.669Z,0
2017-05-12T03:11:58.757Z,0
2017-05-12T03:12:54.680Z,0
2017-05-12T03:13:35.119Z,0
2017-05-12T03:14:17.146Z,0
2017-05-12T03:15:06.286Z,0
2017-05-12T03:15:50.269Z,0
2017-05-12T03:16:30.650Z,0
2017-05-12T03:17:16.637Z,0
2017-05-12T03:17:57.814Z,0
2017-05-12T03:18:43.210Z,0
2017-05-12T03:19:23.970Z,0
2017-05-12T03:20:06.813Z,0
2017-05-12T03:20:47.281Z,0
2017-05-12T03:21:27.623Z,0
2017-05-12T03:22:08.029Z,0
2017-05-12T03:22:48.470Z,0
2017-05-12T03:25:01.622Z,0
2017-05-12T03:25:41.994Z,0
2017-05-12T03:26:22.433Z,0
2017-05-12T03:27:02.802Z,0
2017-05-12T03:27:43.280Z,0
2017-05-12T03:28:23.726Z,0
2017-05-12T03:29:04.095Z,0
2017-05-12T03:29:44.531Z,0
2017-05-12T03:30:24.888Z,0
2017-05-12T03:31:05.316Z,0
2017-05-12T03:31:45.723Z,0
2017-05-12T03:32:26.250Z,0
2017-05-12T03:33:06.688Z,0
2017-05-12T03:33:47.082Z,0
2017-05-12T03:34:27.530Z,0
2017-05-12T03:35:08.698Z,0
2017-05-12T03:35:49.124Z,0
2017-05-12T03:36:29.550Z,0
2017-05-12T03:37:09.975Z,0
2017-05-12T03:37:51.063Z,0
2017-05-12T03:38:31.479Z,0
2017-05-12T03:39:14.684Z,0
2017-05-12T03:41:27.356Z,0
2017-05-12T03:42:07.766Z,0
2017-05-12T03:44:36.993Z,5
2017-05-12T03:45:17.423Z,5
2017-05-12T03:45:57.858Z,5
2017-05-12T03:46:38.297Z,5
2017-05-12T03:47:18.699Z,5
2017-05-12T03:47:59.123Z,5
2017-05-12T03:48:39.581Z,5
2017-05-12T03:49:20.035Z,5
2017-05-12T03:50:01.315Z,10
2017-05-12T03:50:41.818Z,10
2017-05-12T03:51:23.878Z,10
2017-05-12T03:52:04.249Z,10
2017-05-12T03:52:44.640Z,10
2017-05-12T03:53:25.088Z,10
2017-05-12T03:54:06.050Z,10
2017-05-12T03:54:47.198Z,10
2017-05-12T03:55:27.598Z,10
2017-05-12T03:56:08.041Z,10
2017-05-12T03:56:48.557Z,15
2017-05-12T03:57:28.948Z,15
2017-05-12T03:58:09.368Z,15
2017-05-12T03:58:49.775Z,15
2017-05-12T03:59:30.137Z,15
2017-05-12T04:00:10.595Z,15
2017-05-12T04:00:51.442Z,15
2017-05-12T04:01:31.867Z,15
2017-05-12T04:02:12.342Z,20
2017-05-12T04:02:52.712Z,20
2017-05-12T04:03:33.113Z,20
2017-05-12T04:04:13.533Z,20
2017-05-12T04:04:54.143Z,20
2017-05-12T04:05:34.524Z,20
2017-05-12T04:06:14.947Z,20
2017-05-12T04:06:55.346Z,25
2017-05-12T04:07:35.768Z,25
2017-05-12T04:08:16.176Z,25
2017-05-12T04:08:56.615Z,25
2017-05-12T04:09:37.052Z,25
2017-05-12T04:10:17.758Z,30
2017-05-12T04:10:58.241Z,30
2017-05-12T04:11:38.639Z,30
2017-05-12T04:12:19.129Z,30
2017-05-12T04:12:59.496Z,30
2017-05-12T04:13:39.967Z,30
2017-05-12T04:14:20.371Z,30
2017-05-12T04:15:00.793Z,35
2017-05-12T04:15:41.234Z,35
2017-05-12T04:16:21.669Z,40
2017-05-12T04:17:02.131Z,40
2017-05-12T04:17:42.522Z,40
2017-05-12T04:18:22.986Z,45
2017-05-12T04:19:03.398Z,45
2017-05-12T04:19:43.889Z,45
2017-05-12T04:20:24.290Z,50
2017-05-12T04:21:04.674Z,50
2017-05-12T04:21:45.119Z,50
2017-05-12T04:22:25.542Z,55
2017-05-12T04:23:05.975Z,55
2017-05-12T04:23:46.335Z,60
2017-05-12T04:24:26.784Z,60
2017-05-12T04:25:07.230Z,60
2017-05-12T04:25:47.646Z,60
2017-05-12T04:26:28.059Z,65
2017-05-12T04:27:08.471Z,65
2017-05-12T04:27:48.855Z,65
2017-05-12T04:28:29.239Z,65
2017-05-12T04:29:09.606Z,65
2017-05-12T04:29:50.058Z,65
2017-05-12T04:30:30.495Z,70
2017-05-12T04:31:10.887Z,70
2017-05-12T04:31:51.262Z,70
2017-05-12T04:32:31.807Z,75
2017-05-12T04:33:12.263Z,75
2017-05-12T04:33:52.682Z,80
2017-05-12T04:34:33.039Z,80
2017-05-12T04:35:13.475Z,85
2017-05-12T04:35:53.889Z,85
2017-05-12T04:36:34.283Z,85
2017-05-12T04:37:14.754Z,90
2017-05-12T04:37:55.119Z,90
2017-05-12T04:38:35.564Z,90
2017-05-12T04:39:16.018Z,95
2017-05-12T04:39:56.474Z,95
2017-05-12T04:40:37.068Z,100
2017-05-12T04:41:17.399Z,100
2017-05-12T04:41:57.792Z,105
2017-05-12T04:42:38.177Z,105
2017-05-12T04:43:18.621Z,110
2017-05-12T04:43:59.054Z,110
2017-05-12T04:44:39.556Z,110
2017-05-12T04:45:19.945Z,110
2017-05-12T04:46:00.356Z,115
2017-05-12T04:46:40.789Z,120
2017-05-12T04:47:21.241Z,125
2017-05-12T04:48:01.605Z,125
2017-05-12T04:48:41.979Z,130
2017-05-12T04:49:22.397Z,135
2017-05-12T04:50:02.881Z,140
2017-05-12T04:50:43.211Z,145
2017-05-12T04:51:23.656Z,150
2017-05-12T04:52:04.029Z,150
2017-05-12T04:52:44.447Z,155
2017-05-12T04:53:24.860Z,160
2017-05-12T04:54:05.308Z,160
2017-05-12T04:54:45.712Z,160
2017-05-12T04:55:26.137Z,160
2017-05-12T04:56:06.509Z,160
2017-05-12T04:56:47.010Z,160
2017-05-12T04:57:27.445Z,155
2017-05-12T04:58:07.891Z,155
2017-05-12T04:58:48.327Z,155
2017-05-12T04:59:28.741Z,155
2017-05-12T05:00:09.190Z,155
2017-05-12T05:00:49.616Z,155
2017-05-12T05:01:30.070Z,150
2017-05-12T05:02:10.467Z,150
2017-05-12T05:02:50.888Z,150
2017-05-12T05:03:31.339Z,145
2017-05-12T05:04:11.717Z,145
2017-05-12T05:04:52.240Z,145
2017-05-12T05:05:32.686Z,145
2017-05-12T05:06:13.153Z,150
2017-05-12T05:06:53.554Z,155
2017-05-12T05:07:33.936Z,165
2017-05-12T05:08:14.380Z,170
2017-05-12T05:08:54.757Z,180
2017-05-12T05:09:35.149Z,180
2017-05-12T05:10:15.611Z,180
2017-05-12T05:10:56.000Z,180
2017-05-12T05:11:36.470Z,175
2017-05-12T05:12:16.866Z,165
2017-05-12T05:12:57.308Z,160
2017-05-12T05:13:37.719Z,155
2017-05-12T05:14:18.365Z,150
2017-05-12T05:14:58.745Z,145
2017-05-12T05:15:39.131Z,140
2017-05-12T05:16:19.559Z,135
2017-05-12T05:16:59.967Z,135
2017-05-12T05:17:40.416Z,125
2017-05-12T05:18:20.846Z,120
2017-05-12T05:19:01.298Z,115
2017-05-12T05:19:41.671Z,115
2017-05-12T05:20:22.110Z,115
2017-05-12T05:21:02.487Z,115
2017-05-12T05:21:42.960Z,110
2017-05-12T05:22:23.349Z,110
2017-05-12T05:23:03.718Z,115
2017-05-12T05:23:44.166Z,125
2017-05-12T05:24:24.582Z,130
2017-05-12T05:25:04.997Z,130
2017-05-12T05:25:45.375Z,125
2017-05-12T05:26:25.813Z,120
2017-05-12T05:27:06.598Z,115
2017-05-12T05:27:47.222Z,110
2017-05-12T05:28:28.762Z,105
2017-05-12T05:29:09.150Z,105
2017-05-12T05:29:49.684Z,105
2017-05-12T05:30:30.131Z,105
2017-05-12T05:31:10.525Z,105
2017-05-12T05:31:50.969Z,105
2017-05-12T05:32:32.342Z,110
2017-05-12T05:33:12.792Z,110
2017-05-12T05:33:53.144Z,100
2017-05-12T05:34:33.560Z,95
2017-05-12T05:35:13.996Z,90
2017-05-12T05:35:56.091Z,90
2017-05-12T05:36:36.477Z,90
2017-05-12T05:37:17.620Z,85
2017-05-12T05:37:58.081Z,75
2017-05-12T05:38:38.467Z,70
2017-05-12T05:39:20.527Z,60
2017-05-12T05:40:00.986Z,60
2017-05-12T05:40:41.449Z,70
2017-05-12T05:41:21.823Z,75
2017-05-12T05:42:02.275Z,75
2017-05-12T05:42:42.719Z,75
2017-05-12T05:43:23.139Z,85
2017-05-12T05:44:03.540Z,90
2017-05-12T05:44:45.462Z,90
2017-05-12T05:45:25.873Z,90
2017-05-12T05:46:06.333Z,90
2017-05-12T05:46:47.888Z,90
2017-05-12T05:47:28.256Z,90
2017-05-12T05:48:08.730Z,90
2017-05-12T05:48:49.152Z,105
2017-05-12T05:49:30.411Z,115
2017-05-12T05:50:10.966Z,115
2017-05-12T05:50:52.328Z,105
2017-05-12T05:51:32.687Z,110
2017-05-12T05:52:13.219Z,130
2017-05-12T05:52:54.265Z,145
2017-05-12T05:53:34.811Z,155
2017-05-12T05:54:15.094Z,160
2017-05-12T05:54:55.567Z,165
2017-05-12T05:55:35.987Z,165
2017-05-12T05:56:16.388Z,155
2017-05-12T05:56:56.771Z,150
2017-05-12T05:57:37.197Z,140
2017-05-12T05:58:17.639Z,130
2017-05-12T05:58:58.166Z,115
2017-05-12T05:59:38.621Z,100
2017-05-12T06:00:19.052Z,95
2017-05-12T06:01:00.069Z,100
2017-05-12T06:01:40.500Z,110
2017-05-12T06:02:20.986Z,115
2017-05-12T06:03:01.461Z,115
2017-05-12T06:03:41.874Z,115
2017-05-12T06:04:22.259Z,115
2017-05-12T06:05:02.748Z,115
2017-05-12T06:05:43.186Z,105
2017-05-12T06:06:23.670Z,85
2017-05-12T06:07:05.036Z,75
2017-05-12T06:07:45.425Z,85
2017-05-12T06:08:25.840Z,95
2017-05-12T06:09:06.286Z,90
2017-05-12T06:09:46.684Z,80
2017-05-12T06:10:27.073Z,80
2017-05-12T06:11:09.396Z,60
2017-05-12T06:18:36.477Z,150
2017-05-12T06:20:53.213Z,175
2017-05-12T06:21:35.195Z,175
2017-05-12T06:22:16.164Z,190
2017-05-12T06:22:59.733Z,205
2017-05-12T06:23:43.350Z,220
2017-05-12T06:24:24.564Z,220
2017-05-12T06:25:19.200Z,235
2017-05-12T06:27:40.504Z,250
2017-05-12T06:28:20.647Z,255
2017-05-12T06:29:01.062Z,265
2017-05-12T06:29:41.454Z,275
2017-05-12T06:31:58.364Z,345
2017-05-12T06:32:41.693Z,375
2017-05-12T06:33:24.636Z,405
2017-05-12T06:34:05.022Z,425
2017-05-12T06:34:45.455Z,440
2017-05-12T06:35:25.871Z,440
2017-05-12T06:36:06.293Z,435
2017-05-12T06:36:46.667Z,430
2017-05-12T06:37:27.038Z,425
2017-05-12T06:38:08.157Z,425
2017-05-12T06:38:48.524Z,425
2017-05-12T06:39:28.996Z,425
2017-05-12T06:40:09.443Z,430
2017-05-12T06:40:50.425Z,435
2017-05-12T06:41:30.840Z,440
2017-05-12T06:42:11.247Z,450
2017-05-12T06:42:51.685Z,455
2017-05-12T06:43:32.085Z,465
2017-05-12T06:44:12.478Z,475
2017-05-12T06:44:52.866Z,485
2017-05-12T06:45:33.304Z,490
2017-05-12T06:46:13.814Z,490
2017-05-12T06:46:54.175Z,490
2017-05-12T06:47:34.628Z,495
2017-05-12T06:48:15.027Z,495
2017-05-12T06:48:55.455Z,500
2017-05-12T06:49:35.896Z,505
2017-05-12T06:50:16.314Z,505
2017-05-12T06:50:56.717Z,505
2017-05-12T06:51:37.148Z,500
2017-05-12T06:52:17.570Z,505
2017-05-12T06:52:57.933Z,515
2017-05-12T06:53:38.325Z,510
2017-05-12T06:54:18.810Z,510
2017-05-12T06:54:59.231Z,500
2017-05-12T06:55:39.624Z,465
2017-05-12T06:56:20.026Z,445
2017-05-12T06:57:00.411Z,445
2017-05-12T06:57:40.834Z,445
2017-05-12T06:58:21.263Z,470
2017-05-12T06:59:01.654Z,480
2017-05-12T06:59:42.068Z,470
2017-05-12T07:00:22.457Z,460
2017-05-12T07:01:02.871Z,470
2017-05-12T07:01:43.286Z,485
2017-05-12T07:02:23.701Z,490
2017-05-12T07:03:04.053Z,485
2017-05-12T07:03:44.505Z,485
2017-05-12T07:04:24.906Z,490
2017-05-12T07:05:05.356Z,500
2017-05-12T07:05:45.787Z,505
2017-05-12T07:06:26.171Z,520
2017-05-12T07:07:06.616Z,530
2017-05-12T07:07:47.000Z,525
2017-05-12T07:08:27.424Z,520
2017-05-12T07:09:07.830Z,505
2017-05-12T07:09:48.239Z,490
2017-05-12T07:10:28.668Z,490
2017-05-12T07:11:09.061Z,490
2017-05-12T07:11:49.438Z,490
2017-05-12T07:12:29.857Z,490
2017-05-12T07:13:10.260Z,510
2017-05-12T07:13:50.686Z,530
2017-05-12T07:14:31.108Z,555
2017-05-12T07:15:11.494Z,575
2017-05-12T07:15:51.969Z,585
2017-05-12T07:16:32.386Z,595
2017-05-12T07:17:12.781Z,610
2017-05-12T07:17:53.173Z,635
2017-05-12T07:18:33.591Z,650
2017-05-12T07:19:13.999Z,665
2017-05-12T07:19:54.482Z,675
2017-05-12T07:20:34.836Z,685
2017-05-12T07:21:15.285Z,695
2017-05-12T07:21:55.674Z,700
2017-05-12T07:22:36.104Z,715
2017-05-12T07:23:16.517Z,745
2017-05-12T07:23:56.841Z,775
2017-05-12T07:24:37.303Z,810
2017-05-12T07:25:17.710Z,820
2017-05-12T07:25:58.133Z,835
2017-05-12T07:26:38.549Z,855
2017-05-12T07:27:18.960Z,865
2017-05-12T07:27:59.376Z,855
2017-05-12T07:28:39.785Z,840
2017-05-12T07:29:20.243Z,830
2017-05-12T07:30:00.611Z,835
2017-05-12T07:30:41.041Z,845
2017-05-12T07:31:21.454Z,820
2017-05-12T07:32:01.905Z,800
2017-05-12T07:32:42.279Z,800
2017-05-12T07:33:22.727Z,810
2017-05-12T07:34:03.134Z,800
2017-05-12T07:34:43.559Z,820
2017-05-12T07:35:23.991Z,815
2017-05-12T07:36:04.384Z,805
2017-05-12T07:36:44.806Z,795
2017-05-12T07:37:25.193Z,735
2017-05-12T07:38:05.583Z,690
2017-05-12T07:38:46.004Z,700
2017-05-12T07:39:26.415Z,680
2017-05-12T07:40:06.834Z,705
2017-05-12T07:40:47.263Z,715
2017-05-12T07:41:27.653Z,655
2017-05-12T07:42:08.043Z,590
2017-05-12T07:42:48.456Z,605
2017-05-12T07:43:28.895Z,615
2017-05-12T07:44:09.283Z,605
2017-05-12T07:44:49.689Z,520
2017-05-12T07:45:30.122Z,420
2017-05-12T07:46:10.513Z,305
2017-05-12T07:46:50.915Z,310
2017-05-12T07:47:31.310Z,430
2017-05-12T07:48:11.746Z,470
2017-05-12T07:48:52.131Z,405
2017-05-12T07:49:32.574Z,355
2017-05-12T07:50:13.031Z,300
2017-05-12T07:50:53.439Z,315
2017-05-12T07:51:33.804Z,320
2017-05-12T07:52:14.241Z,290
2017-05-12T07:52:54.633Z,290
2017-05-12T07:53:35.058Z,345
2017-05-12T07:54:15.416Z,335
2017-05-12T07:54:55.849Z,350
2017-05-12T07:55:36.286Z,445
2017-05-12T07:56:16.704Z,525
2017-05-12T07:56:57.066Z,575
2017-05-12T07:57:37.502Z,585
2017-05-12T07:58:17.877Z,625
2017-05-12T07:58:58.326Z,665
2017-05-12T07:59:38.747Z,680
2017-05-12T08:00:19.123Z,590
2017-05-12T08:00:59.561Z,495
2017-05-12T08:01:39.930Z,440
2017-05-12T08:02:20.343Z,370
2017-05-12T08:03:00.738Z,330
2017-05-12T08:03:41.157Z,375
2017-05-12T08:04:21.564Z,435
2017-05-12T08:05:01.928Z,455
2017-05-12T08:05:42.357Z,475
2017-05-12T08:06:22.779Z,505
2017-05-12T08:07:03.206Z,560
2017-05-12T08:07:43.621Z,570
2017-05-12T08:08:24.020Z,625
2017-05-12T08:09:04.453Z,685
2017-05-12T08:09:44.851Z,705
2017-05-12T08:10:25.251Z,695
2017-05-12T08:11:05.687Z,735
2017-05-12T08:11:46.079Z,850
2017-05-12T08:12:26.461Z,955
2017-05-12T08:13:06.914Z,1005
2017-05-12T08:13:47.355Z,1010
2017-05-12T08:14:27.752Z,980
2017-05-12T08:15:08.145Z,950
2017-05-12T08:15:48.529Z,965
2017-05-12T08:16:28.963Z,990
2017-05-12T08:17:09.380Z,1045
2017-05-12T08:17:49.783Z,1120
2017-05-12T08:18:30.190Z,1215
2017-05-12T08:19:10.565Z,1280
2017-05-12T08:19:50.952Z,1375
2017-05-12T08:20:31.377Z,1395
2017-05-12T08:21:11.813Z,1355
2017-05-12T08:21:52.263Z,1415
2017-05-12T08:22:32.675Z,1370
2017-05-12T08:23:13.103Z,1290
2017-05-12T08:23:53.489Z,1210
2017-05-12T08:24:33.938Z,1145
2017-05-12T08:25:14.346Z,1040
2017-05-12T08:25:54.753Z,925
2017-05-12T08:26:35.252Z,775
2017-05-12T08:27:15.653Z,690
2017-05-12T08:27:56.066Z,715
2017-05-12T08:28:36.436Z,785
2017-05-12T08:29:16.895Z,810
2017-05-12T08:29:57.274Z,805
2017-05-12T08:30:37.690Z,850
2017-05-12T08:31:18.125Z,920
2017-05-12T08:31:58.528Z,975
2017-05-12T08:32:38.905Z,1000
2017-05-12T08:33:19.352Z,920
2017-05-12T08:33:59.755Z,870
2017-05-12T08:34:40.210Z,995
2017-05-12T08:35:20.596Z,1090
2017-05-12T08:36:01.040Z,1105
2017-05-12T08:36:41.483Z,1180
2017-05-12T08:37:21.899Z,1155
2017-05-12T08:38:02.380Z,1025
2017-05-12T08:38:42.713Z,905
2017-05-12T08:39:23.148Z,860
2017-05-12T08:40:03.546Z,800
2017-05-12T08:40:44.001Z,785
2017-05-12T08:41:24.359Z,780
2017-05-12T08:42:04.816Z,780
2017-05-12T08:42:45.187Z,760
2017-05-12T08:43:25.665Z,715
2017-05-12T08:44:06.037Z,680
2017-05-12T08:44:46.463Z,705
2017-05-12T08:45:26.876Z,770
2017-05-12T08:46:07.323Z,840
2017-05-12T08:46:47.733Z,895
2017-05-12T08:47:28.118Z,910
2017-05-12T08:48:08.520Z,895
2017-05-12T08:48:48.946Z,855
2017-05-12T08:49:29.356Z,845
2017-05-12T08:50:09.756Z,840
2017-05-12T08:50:50.161Z,790
2017-05-12T08:51:30.589Z,725
2017-05-12T08:52:10.956Z,695
2017-05-12T08:52:51.377Z,705
2017-05-12T08:53:31.806Z,715
2017-05-12T08:54:12.221Z,670
2017-05-12T08:54:52.648Z,610
2017-05-12T08:55:33.090Z,595
2017-05-12T08:56:13.472Z,590
2017-05-12T08:56:53.857Z,600
2017-05-12T08:57:34.298Z,635
2017-05-12T08:58:14.729Z,660
2017-05-12T08:58:56.059Z,710
2017-05-12T08:59:36.549Z,735
2017-05-12T09:00:17.074Z,750
2017-05-12T09:00:57.457Z,765
2017-05-12T09:01:37.877Z,775
2017-05-12T09:02:18.320Z,745
2017-05-12T09:02:58.816Z,715
2017-05-12T09:03:39.175Z,690
2017-05-12T09:04:19.602Z,665
2017-05-12T09:05:00.027Z,630
2017-05-12T09:05:40.460Z,580
2017-05-12T09:06:20.820Z,550
2017-05-12T09:07:01.284Z,535
2017-05-12T09:07:41.659Z,570
2017-05-12T09:08:22.114Z,665
2017-05-12T09:09:02.526Z,770
2017-05-12T09:09:42.966Z,850
2017-05-12T09:10:23.315Z,880
2017-05-12T09:11:03.749Z,890
2017-05-12T09:11:44.124Z,890
2017-05-12T09:12:24.528Z,890
2017-05-12T09:13:04.927Z,880
2017-05-12T09:13:45.403Z,850
2017-05-12T09:14:25.814Z,815
2017-05-12T09:15:06.252Z,810
2017-05-12T09:15:46.680Z,810
2017-05-12T09:16:27.140Z,805
2017-05-12T09:17:07.678Z,810
2017-05-12T09:17:48.011Z,830
2017-05-12T09:18:28.469Z,865
2017-05-12T09:19:08.854Z,945
2017-05-12T09:19:49.365Z,1095
2017-05-12T09:20:29.725Z,1245
2017-05-12T09:21:10.146Z,1275
2017-05-12T09:21:50.600Z,1225
2017-05-12T09:22:30.983Z,1075
2017-05-12T09:23:11.428Z,1055
2017-05-12T09:23:51.863Z,1035
2017-05-12T09:24:32.327Z,1030
2017-05-12T09:25:12.714Z,985
2017-05-12T09:25:53.113Z,990
2017-05-12T09:26:33.584Z,1010
2017-05-12T09:27:13.977Z,1060
2017-05-12T09:27:54.380Z,1140
2017-05-12T09:28:34.789Z,1245
2017-05-12T09:29:15.246Z,1280
2017-05-12T09:29:55.682Z,1225
2017-05-12T09:30:36.055Z,1205
2017-05-12T09:31:16.487Z,1205
2017-05-12T09:31:56.897Z,1230
2017-05-12T09:32:37.302Z,1235
2017-05-12T09:33:17.699Z,1215
2017-05-12T09:33:58.154Z,1175
2017-05-12T09:34:38.500Z,1180
2017-05-12T09:35:18.958Z,1310
2017-05-12T09:35:59.351Z,1140
2017-05-12T09:36:39.745Z,1065
2017-05-12T09:37:20.170Z,1000
2017-05-12T09:38:00.580Z,1060
2017-05-12T09:38:41.011Z,1175
2017-05-12T09:39:21.375Z,1340
2017-05-12T09:40:01.814Z,1200
2017-05-12T09:40:42.228Z,1100
2017-05-12T09:41:22.649Z,1100
2017-05-12T09:42:03.063Z,1230
2017-05-12T09:42:43.474Z,1440
2017-05-12T09:43:23.950Z,1180
2017-05-12T09:44:04.316Z,1015
2017-05-12T09:44:44.727Z,845
2017-05-12T09:45:25.183Z,700
2017-05-12T09:46:05.626Z,625
2017-05-12T09:46:46.013Z,560
2017-05-12T09:47:26.426Z,500
2017-05-12T09:48:06.889Z,470
2017-05-12T09:48:47.311Z,455
2017-05-12T09:49:27.756Z,440
2017-05-12T09:50:08.166Z,465
2017-05-12T09:50:48.586Z,475
2017-05-12T09:51:28.956Z,450
2017-05-12T09:52:09.384Z,430
2017-05-12T09:52:49.743Z,430
2017-05-12T09:53:30.176Z,495
2017-05-12T09:54:10.631Z,605
2017-05-12T09:54:51.040Z,715
2017-05-12T09:55:31.486Z,800
2017-05-12T09:56:11.911Z,870
2017-05-12T09:56:52.363Z,945
2017-05-12T09:57:32.826Z,1075
2017-05-12T09:58:13.231Z,1280
2017-05-12T09:58:53.687Z,1650
2017-05-12T09:59:34.075Z,5735
2017-05-12T10:00:14.469Z,5180
2017-05-12T10:00:54.866Z,5045
2017-05-12T10:01:35.318Z,5000
2017-05-12T10:02:15.689Z,5085
2017-05-12T10:02:56.113Z,3355
2017-05-12T10:03:36.516Z,4345
2017-05-12T10:04:16.918Z,5195
2017-05-12T10:04:57.359Z,5285
2017-05-12T10:05:37.795Z,2935
2017-05-12T10:06:18.200Z,1730
2017-05-12T10:06:58.613Z,1665
2017-05-12T10:07:39.039Z,2370
2017-05-12T10:08:19.469Z,1145
2017-05-12T10:08:59.857Z,1175
2017-05-12T10:09:40.287Z,1145
2017-05-12T10:10:20.679Z,1080
2017-05-12T10:11:01.072Z,1035
2017-05-12T10:11:41.527Z,1045
2017-05-12T10:12:21.910Z,1085
2017-05-12T10:13:02.349Z,1195
2017-05-12T10:13:42.809Z,1330
2017-05-12T10:14:23.248Z,1425
2017-05-12T10:15:03.719Z,1555
2017-05-12T10:15:44.131Z,1690
2017-05-12T10:16:24.564Z,2710
2017-05-12T10:18:37.460Z,3970
2017-05-12T10:19:17.850Z,3740
2017-05-12T10:19:58.297Z,2845
2017-05-12T10:20:38.712Z,2530
2017-05-12T10:21:19.152Z,1840
2017-05-12T10:21:59.550Z,2575
2017-05-12T10:22:39.993Z,3720
2017-05-12T10:23:20.428Z,5115
2017-05-12T10:24:00.869Z,5925
2017-05-12T10:24:41.289Z,3640
2017-05-12T10:25:21.682Z,4025
2017-05-12T10:26:02.095Z,2895
2017-05-12T10:26:42.505Z,4040
2017-05-12T10:28:55.522Z,6085
2017-05-12T10:29:35.950Z,6155
2017-05-12T10:30:16.407Z,6240
2017-05-12T10:30:56.844Z,6050
2017-05-12T10:31:37.299Z,5815
2017-05-12T10:32:17.735Z,5915
2017-05-12T10:32:58.179Z,5955
2017-05-12T10:33:38.552Z,5930
2017-05-12T10:34:19.020Z,5720
2017-05-12T10:34:59.416Z,5765
2017-05-12T10:35:39.865Z,5960
2017-05-12T10:36:20.288Z,5790
2017-05-12T10:37:00.709Z,1895
2017-05-12T10:37:41.116Z,5665
2017-05-12T10:38:21.523Z,5985
2017-05-12T10:39:02.022Z,6075
2017-05-12T10:39:42.459Z,6045
2017-05-12T10:40:22.876Z,5680
2017-05-12T10:41:03.322Z,5465
2017-05-12T10:41:43.690Z,5350
2017-05-12T10:42:24.155Z,5335
2017-05-12T10:43:04.591Z,5250
2017-05-12T10:43:44.975Z,5140
2017-05-12T10:44:25.438Z,4665
2017-05-12T10:45:05.884Z,5510
2017-05-12T10:45:46.282Z,5955
2017-05-12T10:46:26.728Z,6050
2017-05-12T10:47:07.169Z,6110
2017-05-12T10:47:47.612Z,2510
2017-05-12T10:48:28.019Z,1380
2017-05-12T10:49:08.429Z,1345
2017-05-12T10:49:48.889Z,1465
2017-05-12T10:50:29.310Z,1655
2017-05-12T10:52:47.404Z,1095
2017-05-12T10:53:27.853Z,1125
2017-05-12T10:55:45.865Z,6830
2017-05-12T10:56:26.313Z,6665
2017-05-12T10:57:06.797Z,3390
2017-05-12T10:57:47.197Z,1715
2017-05-12T10:58:27.625Z,2870
2017-05-12T10:59:08.046Z,1930
2017-05-12T10:59:48.492Z,5605
2017-05-12T11:00:28.908Z,1575
2017-05-12T11:01:09.343Z,1080
2017-05-12T11:01:49.795Z,1060
2017-05-12T11:02:30.220Z,1065
2017-05-12T11:03:10.667Z,1105
2017-05-12T11:03:51.132Z,1435
2017-05-12T11:04:31.524Z,5595
2017-05-12T11:05:11.939Z,5030
2017-05-12T11:05:52.381Z,5385
2017-05-12T11:06:32.824Z,5730
2017-05-12T11:07:13.233Z,5965
2017-05-12T11:07:53.635Z,6025
2017-05-12T11:08:34.128Z,6105
2017-05-12T11:09:14.492Z,6110
2017-05-12T11:09:54.952Z,5985
2017-05-12T11:10:35.410Z,5820
2017-05-12T11:12:54.414Z,6195
2017-05-12T11:13:34.915Z,6610
2017-05-12T11:14:15.300Z,3890
2017-05-12T11:14:55.781Z,1115
2017-05-12T11:15:36.228Z,1090
2017-05-12T11:16:16.617Z,1220
2017-05-12T11:16:57.134Z,1355
2017-05-12T11:17:37.599Z,1700
2017-05-12T11:20:15.851Z,2225
2017-05-12T11:20:56.347Z,6500
2017-05-12T11:21:36.728Z,3580
2017-05-12T11:22:17.166Z,2350
2017-05-12T11:22:57.626Z,6095
2017-05-12T11:23:38.079Z,6275
2017-05-12T11:24:18.505Z,6375
2017-05-12T11:24:58.932Z,6365
2017-05-12T11:27:28.676Z,5825
2017-05-12T11:28:09.115Z,6120
2017-05-12T11:28:49.562Z,6320
2017-05-12T11:29:30.004Z,6145
2017-05-12T11:30:10.419Z,6040
2017-05-12T11:30:51.115Z,5820
2017-05-12T11:31:31.623Z,5620
2017-05-12T11:32:12.065Z,5390
2017-05-12T11:32:52.544Z,5700
2017-05-12T11:33:32.979Z,5965
2017-05-12T11:36:06.588Z,6080
2017-05-12T11:36:47.047Z,6330
2017-05-12T11:37:27.509Z,6085
2017-05-12T11:38:07.949Z,5790
2017-05-12T11:38:48.377Z,5835
2017-05-12T11:39:29.000Z,5785
2017-05-12T11:40:10.205Z,5570
2017-05-12T11:40:50.706Z,5600
2017-05-12T11:41:31.121Z,5810
2017-05-12T11:42:11.657Z,5980
2017-05-12T11:42:52.106Z,5480
2017-05-12T11:43:32.568Z,4680
2017-05-12T11:44:13.022Z,3945
2017-05-12T11:44:53.681Z,3695
2017-05-12T11:45:34.124Z,4105
2017-05-12T11:46:14.552Z,5080
2017-05-12T11:46:55.274Z,5620
2017-05-12T11:47:35.637Z,5695
2017-05-12T11:48:16.102Z,5515
2017-05-12T11:48:56.564Z,5475
2017-05-12T11:49:37.691Z,5555
2017-05-12T11:50:20.452Z,5865
2017-05-12T11:51:01.385Z,990
2017-05-12T11:51:41.835Z,1215
2017-05-12T11:52:22.274Z,6045
2017-05-12T11:53:02.901Z,1870
2017-05-12T11:53:43.229Z,5870
2017-05-12T11:54:23.629Z,4855
2017-05-12T11:55:04.091Z,5495
2017-05-12T11:55:46.184Z,5560
2017-05-12T11:58:00.773Z,5785
2017-05-12T11:58:41.221Z,5490
2017-05-12T11:59:21.642Z,5515
2017-05-12T12:00:02.060Z,5695
2017-05-12T12:00:42.498Z,5430
2017-05-12T12:01:22.950Z,5440
2017-05-12T12:02:03.529Z,5370
2017-05-12T12:02:44.657Z,1600
2017-05-12T12:05:22.079Z,5885
2017-05-12T12:06:03.081Z,5755
2017-05-12T12:06:44.260Z,1805
2017-05-12T12:07:24.700Z,5420
2017-05-12T12:08:05.934Z,5500
2017-05-12T12:10:34.406Z,5965
2017-05-12T12:11:18.404Z,5900
2017-05-12T12:11:58.866Z,6065
2017-05-12T12:12:40.886Z,4465
2017-05-12T12:13:21.303Z,5250
2017-05-12T12:14:01.730Z,5000
2017-05-12T12:14:43.076Z,5325
2017-05-12T12:15:23.479Z,5540
2017-05-12T12:16:04.591Z,5330
2017-05-12T12:16:45.998Z,5290
2017-05-12T12:17:26.422Z,5580
2017-05-12T12:19:44.119Z,5270
2017-05-12T12:20:25.237Z,5385
2017-05-12T12:21:06.276Z,5575
2017-05-12T12:21:47.370Z,4720
2017-05-12T12:22:27.820Z,3310